sensor_id;sensor_type;location;lat;lon;timestamp;pressure;altitude;pressure_sealevel;temperature;humidity
13434;BME280;6789;47.678;9.158;2023-06-24T00:01:10;97605.72;;;18.01;74.72
13434;BME280;6789;47.678;9.158;2023-06-24T00:06:22;97609.28;;;17.90;74.47
13434;BME280;6789;47.678;9.158;2023-06-24T00:11:18;97617.72;;;17.82;75.44
13434;BME280;6789;47.678;9.158;2023-06-24T00:16:11;97613.63;;;17.75;76.44
13434;BME280;6789;47.678;9.158;2023-06-24T00:21:03;97602.09;;;17.64;76.81
13434;BME280;6789;47.678;9.158;2023-06-24T00:25:57;97611.53;;;17.55;77.61
13434;BME280;6789;47.678;9.158;2023-06-24T00:37:53;97612.31;;;17.56;78.07
13434;BME280;6789;47.678;9.158;2023-06-24T00:43:14;97605.78;;;17.42;78.96
13434;BME280;6789;47.678;9.158;2023-06-24T00:48:24;97611.56;;;17.39;78.99
13434;BME280;6789;47.678;9.158;2023-06-24T00:53:19;97612.41;;;17.23;79.90
13434;BME280;6789;47.678;9.158;2023-06-24T00:58:16;97597.94;;;17.30;79.34
13434;BME280;6789;47.678;9.158;2023-06-24T01:03:12;97598.31;;;17.22;79.51
13434;BME280;6789;47.678;9.158;2023-06-24T01:08:08;97598.88;;;17.24;79.17
13434;BME280;6789;47.678;9.158;2023-06-24T01:13:01;97595.34;;;17.19;79.24
13434;BME280;6789;47.678;9.158;2023-06-24T01:18:10;97591.66;;;17.20;79.94
13434;BME280;6789;47.678;9.158;2023-06-24T01:33:19;97599.81;;;16.97;83.16
13434;BME280;6789;47.678;9.158;2023-06-24T01:38:31;97594.22;;;16.77;85.28
13434;BME280;6789;47.678;9.158;2023-06-24T01:43:28;97590.25;;;16.63;87.77
13434;BME280;6789;47.678;9.158;2023-06-24T01:48:25;97589.63;;;16.56;91.65
13434;BME280;6789;47.678;9.158;2023-06-24T01:53:18;97591.94;;;16.53;91.99
13434;BME280;6789;47.678;9.158;2023-06-24T01:58:13;97584.22;;;16.35;91.52
13434;BME280;6789;47.678;9.158;2023-06-24T02:03:08;97586.22;;;16.28;91.82
13434;BME280;6789;47.678;9.158;2023-06-24T02:08:01;97595.41;;;16.26;91.39
13434;BME280;6789;47.678;9.158;2023-06-24T02:12:56;97588.22;;;16.21;91.53
13434;BME280;6789;47.678;9.158;2023-06-24T02:17:52;97579.63;;;16.14;92.83
13434;BME280;6789;47.678;9.158;2023-06-24T02:22:48;97577.81;;;16.03;93.62
13434;BME280;6789;47.678;9.158;2023-06-24T02:27:41;97581.03;;;16.05;94.19
13434;BME280;6789;47.678;9.158;2023-06-24T02:32:33;97587.13;;;16.06;93.91
13434;BME280;6789;47.678;9.158;2023-06-24T02:37:27;97591.34;;;15.90;95.22
13434;BME280;6789;47.678;9.158;2023-06-24T02:42:19;97577.91;;;15.80;96.47
13434;BME280;6789;47.678;9.158;2023-06-24T02:47:14;97583.44;;;15.79;95.60
13434;BME280;6789;47.678;9.158;2023-06-24T02:52:07;97591.72;;;15.82;95.86
13434;BME280;6789;47.678;9.158;2023-06-24T02:56:59;97578.91;;;15.91;95.56
13434;BME280;6789;47.678;9.158;2023-06-24T03:02:21;97596.34;;;15.75;95.94
13434;BME280;6789;47.678;9.158;2023-06-24T03:07:13;97591.97;;;15.70;97.15
13434;BME280;6789;47.678;9.158;2023-06-24T03:12:06;97600.41;;;15.55;98.54
13434;BME280;6789;47.678;9.158;2023-06-24T03:16:58;97605.03;;;15.48;98.86
13434;BME280;6789;47.678;9.158;2023-06-24T03:21:50;97612.53;;;15.40;99.42
13434;BME280;6789;47.678;9.158;2023-06-24T03:26:43;97604.59;;;15.40;99.72
13434;BME280;6789;47.678;9.158;2023-06-24T03:31:35;97612.28;;;15.41;100.00
13434;BME280;6789;47.678;9.158;2023-06-24T03:36:27;97625.34;;;15.48;100.00
13434;BME280;6789;47.678;9.158;2023-06-24T03:41:19;97620.06;;;15.48;100.00
13434;BME280;6789;47.678;9.158;2023-06-24T03:46:11;97622.13;;;15.57;100.00
13434;BME280;6789;47.678;9.158;2023-06-24T03:51:03;97622.91;;;15.69;100.00
13434;BME280;6789;47.678;9.158;2023-06-24T03:55:55;97615.19;;;16.07;97.50
13434;BME280;6789;47.678;9.158;2023-06-24T04:00:47;97618.53;;;16.74;93.24
13434;BME280;6789;47.678;9.158;2023-06-24T04:05:41;97618.59;;;17.28;89.53
13434;BME280;6789;47.678;9.158;2023-06-24T04:10:32;97626.41;;;17.99;83.79
13434;BME280;6789;47.678;9.158;2023-06-24T04:15:24;97629.09;;;18.52;80.87
13434;BME280;6789;47.678;9.158;2023-06-24T04:20:16;97628.63;;;19.17;76.65
13434;BME280;6789;47.678;9.158;2023-06-24T04:25:08;97625.53;;;19.86;73.36
13434;BME280;6789;47.678;9.158;2023-06-24T04:30:01;97630.19;;;20.10;71.60
13434;BME280;6789;47.678;9.158;2023-06-24T04:34:53;97633.47;;;20.52;69.12
13434;BME280;6789;47.678;9.158;2023-06-24T04:39:46;97640.66;;;21.46;65.39
13434;BME280;6789;47.678;9.158;2023-06-24T04:44:37;97651.53;;;22.52;60.78
13434;BME280;6789;47.678;9.158;2023-06-24T04:49:29;97647.50;;;23.83;55.12
13434;BME280;6789;47.678;9.158;2023-06-24T04:54:21;97650.63;;;24.32;52.87
13434;BME280;6789;47.678;9.158;2023-06-24T04:59:13;97663.47;;;24.76;51.21
13434;BME280;6789;47.678;9.158;2023-06-24T05:04:04;97656.28;;;25.54;48.24
13434;BME280;6789;47.678;9.158;2023-06-24T05:08:56;97661.31;;;25.42;48.35
13434;BME280;6789;47.678;9.158;2023-06-24T05:13:48;97672.09;;;26.00;47.30
13434;BME280;6789;47.678;9.158;2023-06-24T05:18:40;97670.78;;;26.25;47.50
13434;BME280;6789;47.678;9.158;2023-06-24T05:23:32;97666.22;;;26.25;47.22
13434;BME280;6789;47.678;9.158;2023-06-24T05:28:23;97665.31;;;27.36;44.35
13434;BME280;6789;47.678;9.158;2023-06-24T05:33:29;97663.97;;;27.25;43.77
13434;BME280;6789;47.678;9.158;2023-06-24T05:38:21;97668.25;;;27.04;43.59
13434;BME280;6789;47.678;9.158;2023-06-24T05:43:14;97669.59;;;27.37;42.96
13434;BME280;6789;47.678;9.158;2023-06-24T05:48:06;97666.28;;;27.40;42.33
13434;BME280;6789;47.678;9.158;2023-06-24T05:53:12;97663.38;;;27.88;41.84
13434;BME280;6789;47.678;9.158;2023-06-24T05:58:17;97669.56;;;27.58;41.78
13434;BME280;6789;47.678;9.158;2023-06-24T06:03:25;97668.31;;;27.34;43.04
13434;BME280;6789;47.678;9.158;2023-06-24T06:08:31;97660.41;;;26.59;43.51
13434;BME280;6789;47.678;9.158;2023-06-24T06:13:23;97671.91;;;27.08;41.75
13434;BME280;6789;47.678;9.158;2023-06-24T06:18:20;97662.41;;;26.13;42.94
13434;BME280;6789;47.678;9.158;2023-06-24T06:23:26;97666.13;;;25.45;44.36
13434;BME280;6789;47.678;9.158;2023-06-24T06:28:33;97675.88;;;24.31;46.96
13434;BME280;6789;47.678;9.158;2023-06-24T06:33:25;97679.97;;;23.76;49.03
13434;BME280;6789;47.678;9.158;2023-06-24T06:38:41;97678.25;;;24.32;47.90
13434;BME280;6789;47.678;9.158;2023-06-24T06:43:57;97681.56;;;22.83;50.88
13434;BME280;6789;47.678;9.158;2023-06-24T06:49:02;97673.53;;;23.49;50.38
13434;BME280;6789;47.678;9.158;2023-06-24T06:54:08;97665.44;;;23.26;51.52
13434;BME280;6789;47.678;9.158;2023-06-24T06:59:07;97668.75;;;23.18;52.21
13434;BME280;6789;47.678;9.158;2023-06-24T07:04:03;97667.44;;;23.72;51.48
13434;BME280;6789;47.678;9.158;2023-06-24T07:15:36;97663.75;;;23.63;51.28
13434;BME280;6789;47.678;9.158;2023-06-24T07:20:30;97654.94;;;23.34;52.24
13434;BME280;6789;47.678;9.158;2023-06-24T07:25:36;97661.16;;;22.92;54.17
13434;BME280;6789;47.678;9.158;2023-06-24T07:30:28;97646.91;;;23.34;53.85
13434;BME280;6789;47.678;9.158;2023-06-24T07:35:20;97653.22;;;23.72;52.08
13434;BME280;6789;47.678;9.158;2023-06-24T07:40:12;97656.78;;;23.05;53.60
13434;BME280;6789;47.678;9.158;2023-06-24T07:45:18;97651.25;;;22.92;54.14
13434;BME280;6789;47.678;9.158;2023-06-24T07:50:12;97651.50;;;23.29;53.80
13434;BME280;6789;47.678;9.158;2023-06-24T07:55:18;97649.72;;;23.19;53.87
13434;BME280;6789;47.678;9.158;2023-06-24T08:00:24;97641.16;;;23.17;55.06
13434;BME280;6789;47.678;9.158;2023-06-24T08:05:29;97646.03;;;23.44;54.15
13434;BME280;6789;47.678;9.158;2023-06-24T08:10:21;97650.50;;;23.48;54.08
13434;BME280;6789;47.678;9.158;2023-06-24T08:15:27;97634.69;;;24.40;53.03
13434;BME280;6789;47.678;9.158;2023-06-24T08:20:34;97633.75;;;24.86;51.50
13434;BME280;6789;47.678;9.158;2023-06-24T08:25:41;97623.16;;;25.13;50.23
13434;BME280;6789;47.678;9.158;2023-06-24T08:30:48;97609.72;;;24.45;51.54
13434;BME280;6789;47.678;9.158;2023-06-24T08:35:40;97605.31;;;24.12;52.50
13434;BME280;6789;47.678;9.158;2023-06-24T08:40:32;97599.88;;;24.17;52.40
13434;BME280;6789;47.678;9.158;2023-06-24T08:45:38;97605.53;;;24.15;51.24
13434;BME280;6789;47.678;9.158;2023-06-24T08:50:51;97598.69;;;23.86;52.92
13434;BME280;6789;47.678;9.158;2023-06-24T08:56:20;97600.59;;;24.04;51.75
13434;BME280;6789;47.678;9.158;2023-06-24T09:01:38;97602.09;;;23.91;52.10
13434;BME280;6789;47.678;9.158;2023-06-24T09:06:31;97600.75;;;24.31;49.71
13434;BME280;6789;47.678;9.158;2023-06-24T09:12:00;97594.28;;;24.87;49.32
13434;BME280;6789;47.678;9.158;2023-06-24T09:17:19;97592.66;;;25.36;47.91
13434;BME280;6789;47.678;9.158;2023-06-24T09:22:28;97596.63;;;24.75;48.68
13434;BME280;6789;47.678;9.158;2023-06-24T09:27:36;97587.41;;;25.58;47.66
13434;BME280;6789;47.678;9.158;2023-06-24T09:32:35;97589.91;;;25.54;46.11
13434;BME280;6789;47.678;9.158;2023-06-24T09:37:41;97574.16;;;25.61;45.88
13434;BME280;6789;47.678;9.158;2023-06-24T09:42:58;97566.47;;;25.15;45.88
13434;BME280;6789;47.678;9.158;2023-06-24T09:48:12;97568.94;;;25.11;46.78
13434;BME280;6789;47.678;9.158;2023-06-24T09:53:34;97553.97;;;25.37;47.55
13434;BME280;6789;47.678;9.158;2023-06-24T09:58:43;97549.63;;;26.16;47.55
13434;BME280;6789;47.678;9.158;2023-06-24T10:03:50;97546.44;;;26.28;44.99
13434;BME280;6789;47.678;9.158;2023-06-24T10:09:26;97538.81;;;25.41;45.87
13434;BME280;6789;47.678;9.158;2023-06-24T10:14:32;97541.34;;;25.51;46.03
13434;BME280;6789;47.678;9.158;2023-06-24T10:19:41;97528.97;;;25.77;44.96
13434;BME280;6789;47.678;9.158;2023-06-24T10:25:00;97527.38;;;25.89;44.39
13434;BME280;6789;47.678;9.158;2023-06-24T10:30:08;97524.19;;;25.33;45.71
13434;BME280;6789;47.678;9.158;2023-06-24T10:35:28;97513.03;;;25.80;44.32
13434;BME280;6789;47.678;9.158;2023-06-24T10:40:42;97516.34;;;25.50;43.94
13434;BME280;6789;47.678;9.158;2023-06-24T10:45:52;97506.88;;;25.39;44.47
13434;BME280;6789;47.678;9.158;2023-06-24T10:56:17;97514.66;;;26.16;41.28
13434;BME280;6789;47.678;9.158;2023-06-24T11:01:27;97490.19;;;26.04;41.96
13434;BME280;6789;47.678;9.158;2023-06-24T11:06:33;97483.97;;;25.82;41.57
13434;BME280;6789;47.678;9.158;2023-06-24T11:12:09;97481.59;;;25.00;42.79
13434;BME280;6789;47.678;9.158;2023-06-24T11:17:30;97473.81;;;25.66;42.12
13434;BME280;6789;47.678;9.158;2023-06-24T11:22:43;97467.22;;;25.72;41.60
13434;BME280;6789;47.678;9.158;2023-06-24T11:28:15;97461.97;;;25.80;41.12
13434;BME280;6789;47.678;9.158;2023-06-24T11:33:52;97454.84;;;25.97;39.98
13434;BME280;6789;47.678;9.158;2023-06-24T11:38:58;97444.75;;;25.68;40.00
13434;BME280;6789;47.678;9.158;2023-06-24T11:43:51;97439.69;;;26.01;39.21
13434;BME280;6789;47.678;9.158;2023-06-24T11:49:08;97438.09;;;25.52;39.53
13434;BME280;6789;47.678;9.158;2023-06-24T11:54:40;97425.75;;;25.64;39.87
13434;BME280;6789;47.678;9.158;2023-06-24T11:59:52;97427.13;;;26.10;39.06
13434;BME280;6789;47.678;9.158;2023-06-24T12:05:11;97416.41;;;26.19;38.90
13434;BME280;6789;47.678;9.158;2023-06-24T12:10:30;97417.25;;;25.84;39.80
13434;BME280;6789;47.678;9.158;2023-06-24T12:15:52;97415.78;;;25.65;40.14
13434;BME280;6789;47.678;9.158;2023-06-24T12:21:21;97398.50;;;26.14;39.38
13434;BME280;6789;47.678;9.158;2023-06-24T12:26:28;97403.22;;;26.09;37.94
13434;BME280;6789;47.678;9.158;2023-06-24T12:32:01;97394.53;;;26.34;38.40
13434;BME280;6789;47.678;9.158;2023-06-24T12:37:29;97391.16;;;26.28;39.38
13434;BME280;6789;47.678;9.158;2023-06-24T12:42:37;97391.78;;;26.03;39.37
13434;BME280;6789;47.678;9.158;2023-06-24T12:47:44;97389.41;;;26.46;38.92
13434;BME280;6789;47.678;9.158;2023-06-24T12:52:50;97377.41;;;25.86;39.97
13434;BME280;6789;47.678;9.158;2023-06-24T12:57:42;97376.59;;;26.29;38.18
13434;BME280;6789;47.678;9.158;2023-06-24T13:02:50;97382.53;;;25.39;40.35
13434;BME280;6789;47.678;9.158;2023-06-24T13:07:56;97373.19;;;26.15;39.00
13434;BME280;6789;47.678;9.158;2023-06-24T13:13:32;97355.69;;;26.78;37.92
13434;BME280;6789;47.678;9.158;2023-06-24T13:18:40;97370.03;;;26.66;37.80
13434;BME280;6789;47.678;9.158;2023-06-24T13:23:59;97353.97;;;26.52;39.14
13434;BME280;6789;47.678;9.158;2023-06-24T13:29:06;97360.13;;;26.00;39.42
13434;BME280;6789;47.678;9.158;2023-06-24T13:34:13;97354.00;;;26.08;38.17
13434;BME280;6789;47.678;9.158;2023-06-24T13:39:20;97332.59;;;26.25;37.74
13434;BME280;6789;47.678;9.158;2023-06-24T13:44:34;97331.22;;;26.36;37.78
13434;BME280;6789;47.678;9.158;2023-06-24T13:49:57;97325.13;;;26.44;37.86
13434;BME280;6789;47.678;9.158;2023-06-24T13:55:05;97332.97;;;26.71;37.05
13434;BME280;6789;47.678;9.158;2023-06-24T14:00:52;97329.63;;;26.57;37.70
13434;BME280;6789;47.678;9.158;2023-06-24T14:06:08;97321.59;;;26.74;36.87
13434;BME280;6789;47.678;9.158;2023-06-24T14:11:36;97330.06;;;26.51;39.36
13434;BME280;6789;47.678;9.158;2023-06-24T14:16:44;97319.53;;;26.79;35.42
13434;BME280;6789;47.678;9.158;2023-06-24T14:22:01;97322.53;;;27.34;37.36
13434;BME280;6789;47.678;9.158;2023-06-24T14:27:18;97302.75;;;27.72;36.34
13434;BME280;6789;47.678;9.158;2023-06-24T14:32:39;97300.47;;;27.15;37.10
13434;BME280;6789;47.678;9.158;2023-06-24T14:37:46;97300.31;;;27.20;37.42
13434;BME280;6789;47.678;9.158;2023-06-24T14:43:03;97290.53;;;26.68;38.04
13434;BME280;6789;47.678;9.158;2023-06-24T14:48:09;97290.97;;;26.53;38.32
13434;BME280;6789;47.678;9.158;2023-06-24T14:53:40;97291.34;;;26.77;37.94
13434;BME280;6789;47.678;9.158;2023-06-24T14:58:57;97287.88;;;26.85;37.71
13434;BME280;6789;47.678;9.158;2023-06-24T15:04:07;97287.31;;;27.05;37.11
13434;BME280;6789;47.678;9.158;2023-06-24T15:20:13;97264.81;;;26.45;36.91
13434;BME280;6789;47.678;9.158;2023-06-24T15:25:22;97267.72;;;26.57;36.70
13434;BME280;6789;47.678;9.158;2023-06-24T15:30:34;97260.31;;;26.79;36.74
13434;BME280;6789;47.678;9.158;2023-06-24T15:36:10;97262.38;;;26.74;36.44
13434;BME280;6789;47.678;9.158;2023-06-24T15:41:31;97250.97;;;26.77;36.92
13434;BME280;6789;47.678;9.158;2023-06-24T15:47:05;97258.41;;;26.63;37.18
13434;BME280;6789;47.678;9.158;2023-06-24T15:52:36;97249.00;;;26.61;36.77
13434;BME280;6789;47.678;9.158;2023-06-24T15:57:43;97244.59;;;26.56;37.46
13434;BME280;6789;47.678;9.158;2023-06-24T16:02:50;97246.59;;;26.42;38.45
13434;BME280;6789;47.678;9.158;2023-06-24T16:07:56;97240.13;;;26.43;37.32
13434;BME280;6789;47.678;9.158;2023-06-24T16:13:03;97235.69;;;26.47;38.28
13434;BME280;6789;47.678;9.158;2023-06-24T16:18:09;97235.13;;;26.28;38.32
13434;BME280;6789;47.678;9.158;2023-06-24T16:23:18;97228.88;;;26.41;37.32
13434;BME280;6789;47.678;9.158;2023-06-24T16:28:28;97221.13;;;26.40;36.69
13434;BME280;6789;47.678;9.158;2023-06-24T16:33:38;97222.53;;;26.37;38.01
13434;BME280;6789;47.678;9.158;2023-06-24T16:38:44;97217.50;;;26.44;37.04
13434;BME280;6789;47.678;9.158;2023-06-24T16:43:36;97227.09;;;26.37;37.31
13434;BME280;6789;47.678;9.158;2023-06-24T16:48:42;97213.59;;;26.28;37.87
13434;BME280;6789;47.678;9.158;2023-06-24T16:53:47;97210.84;;;26.50;38.45
13434;BME280;6789;47.678;9.158;2023-06-24T16:58:53;97206.78;;;26.31;39.43
13434;BME280;6789;47.678;9.158;2023-06-24T17:04:00;97204.75;;;26.28;38.71
13434;BME280;6789;47.678;9.158;2023-06-24T17:09:09;97204.97;;;26.48;38.79
13434;BME280;6789;47.678;9.158;2023-06-24T17:14:26;97203.31;;;26.22;38.64
13434;BME280;6789;47.678;9.158;2023-06-24T17:19:32;97195.50;;;26.12;39.74
13434;BME280;6789;47.678;9.158;2023-06-24T17:24:39;97190.59;;;26.14;39.36
13434;BME280;6789;47.678;9.158;2023-06-24T17:29:31;97194.69;;;26.03;38.16
13434;BME280;6789;47.678;9.158;2023-06-24T17:34:23;97187.19;;;25.92;38.29
13434;BME280;6789;47.678;9.158;2023-06-24T17:39:15;97198.09;;;25.87;38.57
13434;BME280;6789;47.678;9.158;2023-06-24T17:44:36;97179.88;;;25.84;38.61
13434;BME280;6789;47.678;9.158;2023-06-24T17:49:55;97182.09;;;25.82;38.22
13434;BME280;6789;47.678;9.158;2023-06-24T17:55:13;97198.81;;;25.79;39.21
13434;BME280;6789;47.678;9.158;2023-06-24T18:00:21;97182.84;;;25.52;39.88
13434;BME280;6789;47.678;9.158;2023-06-24T18:05:26;97182.06;;;25.51;40.17
13434;BME280;6789;47.678;9.158;2023-06-24T18:10:43;97183.91;;;25.42;39.80
13434;BME280;6789;47.678;9.158;2023-06-24T18:15:49;97172.25;;;25.25;40.32
13434;BME280;6789;47.678;9.158;2023-06-24T18:20:42;97184.22;;;25.06;41.12
13434;BME280;6789;47.678;9.158;2023-06-24T18:25:48;97191.63;;;25.00;41.50
13434;BME280;6789;47.678;9.158;2023-06-24T18:30:57;97182.28;;;24.98;41.75
13434;BME280;6789;47.678;9.158;2023-06-24T18:36:03;97186.13;;;25.05;42.13
13434;BME280;6789;47.678;9.158;2023-06-24T18:41:09;97193.22;;;25.01;41.77
13434;BME280;6789;47.678;9.158;2023-06-24T18:46:02;97188.50;;;24.85;42.19
13434;BME280;6789;47.678;9.158;2023-06-24T18:50:54;97174.25;;;25.72;40.84
13434;BME280;6789;47.678;9.158;2023-06-24T18:55:46;97168.75;;;26.54;39.11
13434;BME280;6789;47.678;9.158;2023-06-24T19:00:45;97171.91;;;26.56;39.08
13434;BME280;6789;47.678;9.158;2023-06-24T19:06:02;97188.50;;;26.41;39.33
13434;BME280;6789;47.678;9.158;2023-06-24T19:11:04;97182.53;;;26.14;40.32
13434;BME280;6789;47.678;9.158;2023-06-24T19:15:57;97183.41;;;25.19;42.04
13434;BME280;6789;47.678;9.158;2023-06-24T19:21:02;97185.94;;;24.66;43.86
13434;BME280;6789;47.678;9.158;2023-06-24T19:26:12;97194.03;;;23.99;45.03
13434;BME280;6789;47.678;9.158;2023-06-24T19:31:04;97178.78;;;23.68;46.13
13434;BME280;6789;47.678;9.158;2023-06-24T19:36:09;97183.50;;;23.44;46.93
13434;BME280;6789;47.678;9.158;2023-06-24T19:41:17;97185.81;;;23.19;47.37
13434;BME280;6789;47.678;9.158;2023-06-24T19:46:24;97179.94;;;22.98;47.53
13434;BME280;6789;47.678;9.158;2023-06-24T19:51:30;97187.53;;;22.92;47.92
13434;BME280;6789;47.678;9.158;2023-06-24T19:56:22;97194.94;;;22.81;48.46
13434;BME280;6789;47.678;9.158;2023-06-24T20:01:28;97184.56;;;22.75;48.43
13434;BME280;6789;47.678;9.158;2023-06-24T20:06:22;97195.72;;;22.63;48.36
13434;BME280;6789;47.678;9.158;2023-06-24T20:11:28;97194.41;;;22.61;48.34
13434;BME280;6789;47.678;9.158;2023-06-24T20:16:54;97188.19;;;22.47;48.53
13434;BME280;6789;47.678;9.158;2023-06-24T20:22:18;97188.31;;;22.37;49.05
13434;BME280;6789;47.678;9.158;2023-06-24T20:27:29;97185.13;;;22.35;48.91
13434;BME280;6789;47.678;9.158;2023-06-24T20:32:48;97195.63;;;22.26;49.20
13434;BME280;6789;47.678;9.158;2023-06-24T20:37:54;97191.00;;;22.14;49.55
13434;BME280;6789;47.678;9.158;2023-06-24T20:42:50;97201.44;;;22.10;49.75
13434;BME280;6789;47.678;9.158;2023-06-24T20:47:41;97194.91;;;21.98;50.48
13434;BME280;6789;47.678;9.158;2023-06-24T20:52:33;97189.72;;;21.83;50.96
13434;BME280;6789;47.678;9.158;2023-06-24T20:58:07;97189.47;;;21.84;51.84
13434;BME280;6789;47.678;9.158;2023-06-24T21:03:24;97187.03;;;21.59;53.18
13434;BME280;6789;47.678;9.158;2023-06-24T21:08:16;97181.75;;;21.55;53.95
13434;BME280;6789;47.678;9.158;2023-06-24T21:13:22;97179.09;;;21.55;53.24
13434;BME280;6789;47.678;9.158;2023-06-24T21:18:13;97170.59;;;21.43;53.58
13434;BME280;6789;47.678;9.158;2023-06-24T21:23:06;97182.41;;;21.37;53.58
13434;BME280;6789;47.678;9.158;2023-06-24T21:28:17;97171.78;;;21.32;53.92
13434;BME280;6789;47.678;9.158;2023-06-24T21:33:25;97173.94;;;21.30;53.67
13434;BME280;6789;47.678;9.158;2023-06-24T21:38:41;97177.28;;;21.17;54.08
13434;BME280;6789;47.678;9.158;2023-06-24T21:43:33;97176.25;;;21.08;54.31
13434;BME280;6789;47.678;9.158;2023-06-24T21:48:28;97180.28;;;21.05;53.84
13434;BME280;6789;47.678;9.158;2023-06-24T21:53:34;97168.81;;;21.05;54.17
13434;BME280;6789;47.678;9.158;2023-06-24T21:58:26;97159.03;;;20.95;55.16
13434;BME280;6789;47.678;9.158;2023-06-24T22:03:33;97157.50;;;20.84;55.87
13434;BME280;6789;47.678;9.158;2023-06-24T22:08:40;97159.44;;;20.74;56.34
13434;BME280;6789;47.678;9.158;2023-06-24T22:13:56;97162.69;;;20.66;56.70
13434;BME280;6789;47.678;9.158;2023-06-24T22:19:33;97156.56;;;20.61;57.24
13434;BME280;6789;47.678;9.158;2023-06-24T22:25:06;97144.88;;;20.57;57.25
13434;BME280;6789;47.678;9.158;2023-06-24T22:30:13;97154.25;;;20.49;56.62
13434;BME280;6789;47.678;9.158;2023-06-24T22:35:47;97156.94;;;20.44;56.35
13434;BME280;6789;47.678;9.158;2023-06-24T22:40:57;97148.97;;;20.39;56.32
13434;BME280;6789;47.678;9.158;2023-06-24T22:46:04;97146.34;;;20.34;56.77
13434;BME280;6789;47.678;9.158;2023-06-24T22:51:12;97141.31;;;20.28;56.73
13434;BME280;6789;47.678;9.158;2023-06-24T22:56:19;97142.91;;;20.29;55.65
13434;BME280;6789;47.678;9.158;2023-06-24T23:01:40;97135.75;;;20.24;56.13
13434;BME280;6789;47.678;9.158;2023-06-24T23:06:32;97124.00;;;20.25;55.96
13434;BME280;6789;47.678;9.158;2023-06-24T23:11:38;97125.13;;;20.14;56.37
13434;BME280;6789;47.678;9.158;2023-06-24T23:16:45;97115.22;;;20.25;56.45
13434;BME280;6789;47.678;9.158;2023-06-24T23:22:08;97109.22;;;20.05;57.39
13434;BME280;6789;47.678;9.158;2023-06-24T23:27:30;97114.31;;;19.96;57.45
13434;BME280;6789;47.678;9.158;2023-06-24T23:33:15;97109.47;;;20.03;57.46
13434;BME280;6789;47.678;9.158;2023-06-24T23:39:09;97107.66;;;19.94;56.99
13434;BME280;6789;47.678;9.158;2023-06-24T23:44:01;97108.72;;;19.93;56.92
13434;BME280;6789;47.678;9.158;2023-06-24T23:48:54;97103.66;;;19.86;57.14
13434;BME280;6789;47.678;9.158;2023-06-24T23:54:11;97098.91;;;19.83;56.99
13434;BME280;6789;47.678;9.158;2023-06-24T23:59:17;97094.41;;;19.74;57.64
